Airfield :
LOGIN :

Register | Disclaimer

   EN    FR    IT 

 










Legend :    VFR   Marginal VFR   IFR   Intensive IFR   Very Intensive IFR
Visi :
Ceiling :
>= 8 km
>= 3000ft
5 to 8 km
1000 to 3000 ft
1500m to 5 km
500 to 1000 ft
800 to 1500m
200 to 500 ft
< 800m
< 200 ft
Symbols :   Thunderstorms  Fog  Heavy snow  Heavy precipitations  Wind > 20 kt
SIGMETs :     Misc.  Thunderstorms  Icing  Turbulence  Mountain Waves  Volcanic Ashes






- Airport Elevation : 302 ft
- IATA code : SJY


EFSI - Seinäjoki

CURRENT METAR :
  • 260550Z AUTO 06003KT 350V100 CAVOK 16/07 Q1028

EXPIRED METARs :
  • 260520Z AUTO 07003KT 030V160 CAVOK 15/06 Q1028
  • 260450Z AUTO 12003KT 080V150 CAVOK 14/05 Q1028
  • 260420Z AUTO 12004KT 090V150 CAVOK 12/05 Q1028
  • 260350Z AUTO 09003KT 020V110 CAVOK 12/05 Q1028
  • 260320Z AUTO 06003KT 360V090 CAVOK 10/04 Q1028
  • 260250Z AUTO VRB02KT CAVOK 09/05 Q1028
  • 260220Z AUTO 06003KT 020V090 CAVOK 09/04 Q1028
  • 260150Z AUTO 04003KT 350V090 CAVOK 09/04 Q1028
  • 260120Z AUTO 04003KT 340V090 CAVOK 09/04 Q1027
  • 260050Z AUTO 03003KT 350V080 CAVOK 09/04 Q1027

TAF TAF EFSI
Valid from the 26 at 06:00 until the 26 at 15:00 UTC


260530Z 2606/2615 09005KT CAVOK



MET'MAP, your aeronautical weather chart ! - Copyright ORBIFLY December 2007 - Disclaimer

ORBIFLY MET'MAP TEAM :

Programming & Development : Alexandra Zaïnal
Original concept : Baudouin d'Aumeries
Technical & hardware support : Manuel Goepfert
Assistance : Marc-Olivier Méhu




SOURCES & CREDITS :

   NOAA